Time;durP1;ratioP1;P1;durP2;ratioP2;P2;SDS_P1;SDS_P2;PMS_P1;PMS_P2;Temp;Humidity;BMP_temperature;BMP_pressure;BME280_temperature;BME280_humidity;BME280_pressure;Samples;Min_cycle;Max_cycle;Signal;HPM_P1;HPM_P2
2022/09/17 00:00:12;;;;;;;10.35;4.13;;;;;;;-142.57;100.00;68379.81;5050839;28;20464;-75
2022/09/17 00:02:38;;;;;;;11.27;3.50;;;;;;;-142.57;100.00;68379.81;5026214;28;20037;-75
2022/09/17 00:05:04;;;;;;;9.73;3.28;;;;;;;-142.57;100.00;68379.81;5041268;28;20018;-75
2022/09/17 00:07:30;;;;;;;13.98;3.33;;;;;;;-142.57;100.00;68379.81;5056103;28;20113;-75
2022/09/17 00:09:55;;;;;;;8.38;3.53;;;;;;;-142.57;100.00;68379.81;5063634;28;20532;-75
2022/09/17 00:12:20;;;;;;;13.05;2.97;;;;;;;-142.57;100.00;68379.81;5056885;28;20142;-75
2022/09/17 00:14:46;;;;;;;13.95;3.85;;;;;;;-142.57;100.00;68379.81;5053683;28;20372;-75
2022/09/17 00:17:11;;;;;;;11.18;3.45;;;;;;;-142.57;100.00;68379.81;5047632;28;20037;-75
2022/09/17 00:19:38;;;;;;;6.60;2.58;;;;;;;-142.57;100.00;68379.81;5042315;28;20035;-76
2022/09/17 00:22:03;;;;;;;9.07;3.10;;;;;;;-142.57;100.00;68379.81;5033146;28;20048;-75
2022/09/17 00:24:28;;;;;;;13.45;3.10;;;;;;;-142.57;100.00;68379.81;5050910;28;20029;-74
2022/09/17 00:26:54;;;;;;;8.68;2.38;;;;;;;-142.57;100.00;68379.81;5050016;28;20422;-75
2022/09/17 00:29:19;;;;;;;10.77;3.08;;;;;;;-142.57;100.00;68379.81;5050669;28;20029;-75
2022/09/17 00:31:44;;;;;;;6.68;3.08;;;;;;;-142.57;100.00;68379.81;5048656;28;20028;-75
2022/09/17 00:34:11;;;;;;;8.82;3.28;;;;;;;-142.57;100.00;68379.81;5047916;28;20029;-75
2022/09/17 00:36:37;;;;;;;14.43;3.42;;;;;;;-142.57;100.00;68379.81;5032125;28;20085;-74
2022/09/17 00:39:04;;;;;;;9.45;3.30;;;;;;;-142.57;100.00;68379.81;5041196;28;20112;-75
2022/09/17 00:41:31;;;;;;;9.02;3.70;;;;;;;-142.57;100.00;68379.81;5008760;28;20029;-75
2022/09/17 00:44:20;;;;;;;9.65;3.03;;;;;;;-142.57;100.00;68379.81;5029753;28;20032;-74
2022/09/17 00:46:46;;;;;;;12.07;2.97;;;;;;;-142.57;100.00;68379.81;5049017;28;20114;-75
2022/09/17 00:49:22;;;;;;;6.13;2.92;;;;;;;-142.57;100.00;68379.81;5045022;28;20029;-74
2022/09/17 00:52:10;;;;;;;10.27;3.38;;;;;;;-142.57;100.00;68379.81;5034928;28;20032;-74
2022/09/17 00:54:38;;;;;;;8.07;3.25;;;;;;;-142.57;100.00;68379.81;5031403;28;20087;-75
2022/09/17 00:57:03;;;;;;;12.98;2.72;;;;;;;-142.57;100.00;68379.81;5053452;28;20064;-74
2022/09/17 00:59:28;;;;;;;8.48;2.95;;;;;;;-142.57;100.00;68379.81;5046353;28;20057;-74
2022/09/17 01:01:54;;;;;;;7.18;3.08;;;;;;;-142.57;100.00;68379.81;5050108;28;20112;-78
2022/09/17 01:04:24;;;;;;;7.97;2.88;;;;;;;-142.57;100.00;68379.81;5047794;28;20048;-75
2022/09/17 01:06:49;;;;;;;9.10;3.00;;;;;;;-142.57;100.00;68379.81;5029896;28;20075;-76
2022/09/17 01:09:24;;;;;;;8.50;3.35;;;;;;;-142.57;100.00;68379.81;5026414;28;20041;-75
2022/09/17 01:12:08;;;;;;;6.90;3.22;;;;;;;-142.57;100.00;68379.81;5058066;28;20041;-75
2022/09/17 01:14:41;;;;;;;13.13;3.40;;;;;;;-142.57;100.00;68379.81;5049335;28;20041;-76
2022/09/17 01:17:14;;;;;;;12.93;3.83;;;;;;;-142.57;100.00;68379.81;5049339;28;20053;-74
2022/09/17 01:19:58;;;;;;;11.23;3.50;;;;;;;-142.57;100.00;68379.81;5048018;28;20025;-75
2022/09/17 01:22:50;;;;;;;17.88;3.78;;;;;;;-142.57;100.00;68379.81;5058811;28;20037;-75
2022/09/17 01:25:25;;;;;;;11.30;3.40;;;;;;;-142.57;100.00;68379.81;5037756;28;20076;-75
2022/09/17 01:28:13;;;;;;;8.20;3.35;;;;;;;-142.57;100.00;68379.81;5048013;28;20517;-75
2022/09/17 01:30:58;;;;;;;9.05;4.30;;;;;;;-142.57;100.00;68379.81;5049401;28;20056;-74
2022/09/17 01:33:29;;;;;;;10.93;4.65;;;;;;;-142.57;100.00;68379.81;5050574;28;20060;-76
2022/09/17 01:36:21;;;;;;;11.27;3.97;;;;;;;-142.57;100.00;68379.81;5040299;28;20033;-76
2022/09/17 01:39:08;;;;;;;15.60;3.63;;;;;;;-142.57;100.00;68379.81;5051083;28;20107;-75
2022/09/17 01:41:50;;;;;;;12.65;3.58;;;;;;;-142.57;100.00;68379.81;5048876;28;20024;-74
2022/09/17 01:44:20;;;;;;;10.65;3.83;;;;;;;-142.57;100.00;68379.81;5049263;28;20112;-75
2022/09/17 01:46:50;;;;;;;11.63;4.18;;;;;;;-142.57;100.00;68379.81;5041707;28;20028;-75
2022/09/17 01:49:16;;;;;;;8.48;3.28;;;;;;;-142.57;100.00;68379.81;5056345;28;20035;-77
2022/09/17 01:51:45;;;;;;;10.50;4.30;;;;;;;-142.57;100.00;68379.81;5045343;28;20025;-77
2022/09/17 01:54:34;;;;;;;19.40;5.00;;;;;;;-142.57;100.00;68379.81;5031313;28;20025;-75
2022/09/17 01:57:08;;;;;;;15.65;3.88;;;;;;;-142.57;100.00;68379.81;5045409;28;20106;-75
2022/09/17 01:59:44;;;;;;;11.27;4.07;;;;;;;-142.57;100.00;68379.81;5047558;28;20112;-74
2022/09/17 02:02:14;;;;;;;16.90;4.20;;;;;;;-142.57;100.00;68379.81;5044135;28;20029;-75
2022/09/17 02:04:47;;;;;;;14.43;3.65;;;;;;;-142.57;100.00;68379.81;5044993;28;20033;-75
2022/09/17 02:07:19;;;;;;;20.55;5.05;;;;;;;-142.57;100.00;68379.81;5025362;28;20116;-75
2022/09/17 02:09:59;;;;;;;12.30;3.97;;;;;;;-142.57;100.00;68379.81;5028280;28;20175;-75
2022/09/17 02:12:31;;;;;;;11.35;3.15;;;;;;;-142.57;100.00;68379.81;5050357;28;20108;-76
2022/09/17 02:14:59;;;;;;;13.98;3.92;;;;;;;-142.57;100.00;68379.81;5047379;28;20480;-77
2022/09/17 02:17:33;;;;;;;9.60;3.60;;;;;;;-142.57;100.00;68379.81;5043754;28;20028;-75
2022/09/17 02:19:59;;;;;;;12.57;4.38;;;;;;;-142.57;100.00;68379.81;5053279;28;20029;-75
2022/09/17 02:22:43;;;;;;;11.82;3.90;;;;;;;-142.57;100.00;68379.81;5052638;28;20033;-75
2022/09/17 02:25:36;;;;;;;13.48;4.07;;;;;;;-142.57;100.00;68379.81;5051917;28;20028;-75
2022/09/17 02:28:15;;;;;;;12.57;3.72;;;;;;;-142.57;100.00;68379.81;5053653;28;20037;-75
2022/09/17 02:30:41;;;;;;;13.30;3.55;;;;;;;-142.57;100.00;68379.81;5025398;28;20024;-75
2022/09/17 02:33:08;;;;;;;12.90;3.78;;;;;;;-142.57;100.00;68379.81;5039745;28;20483;-76
2022/09/17 02:35:35;;;;;;;11.80;4.18;;;;;;;-142.57;100.00;68379.81;5035339;28;20077;-78
2022/09/17 02:38:00;;;;;;;9.73;3.92;;;;;;;-142.57;100.00;68379.81;5035574;28;20033;-76
2022/09/17 02:40:29;;;;;;;10.98;3.53;;;;;;;-142.57;100.00;68379.81;5049751;28;20439;-76
2022/09/17 02:43:03;;;;;;;13.93;4.00;;;;;;;-142.57;100.00;68379.81;5047536;28;20470;-76
2022/09/17 02:46:06;;;;;;;14.15;3.45;;;;;;;-142.57;100.00;68379.81;5052535;28;20025;-76
2022/09/17 02:48:49;;;;;;;10.60;3.53;;;;;;;-142.57;100.00;68379.81;5053566;28;20028;-77
2022/09/17 02:51:32;;;;;;;12.00;4.45;;;;;;;-142.57;100.00;68379.81;5050745;28;20025;-77
2022/09/17 02:54:23;;;;;;;9.68;3.42;;;;;;;-142.57;100.00;68379.81;5047507;28;20044;-78
2022/09/17 02:57:10;;;;;;;16.35;3.58;;;;;;;-142.57;100.00;68379.81;5047020;28;20498;-75
2022/09/17 02:59:56;;;;;;;11.15;3.58;;;;;;;-142.57;100.00;68379.81;5051196;28;20103;-77
2022/09/17 03:02:25;;;;;;;13.25;3.85;;;;;;;-142.57;100.00;68379.81;5051649;28;20143;-77
2022/09/17 03:04:52;;;;;;;7.80;2.97;;;;;;;-142.57;100.00;68379.81;5052272;28;20028;-77
2022/09/17 03:07:19;;;;;;;11.93;3.47;;;;;;;-142.57;100.00;68379.81;5047565;28;20087;-77
2022/09/17 03:09:44;;;;;;;16.05;3.75;;;;;;;-142.57;100.00;68379.81;5041584;28;20021;-76
2022/09/17 03:12:10;;;;;;;11.63;3.10;;;;;;;-142.57;100.00;68379.81;5051742;28;20075;-78
2022/09/17 03:14:36;;;;;;;10.13;3.28;;;;;;;-142.57;100.00;68379.81;5051433;28;20033;-78
2022/09/17 03:17:02;;;;;;;14.10;3.75;;;;;;;-142.57;100.00;68379.81;5039417;28;20542;-77
2022/09/17 03:19:27;;;;;;;10.25;3.35;;;;;;;-142.57;100.00;68379.81;5044945;28;20098;-78
2022/09/17 03:21:53;;;;;;;12.35;3.30;;;;;;;-142.57;100.00;68379.81;5051859;28;20037;-79
2022/09/17 03:24:18;;;;;;;17.58;3.63;;;;;;;-142.57;100.00;68379.81;5046179;28;20114;-77
2022/09/17 03:26:46;;;;;;;7.13;2.70;;;;;;;-142.57;100.00;68379.81;5050523;28;20091;-78
2022/09/17 03:29:11;;;;;;;9.40;3.53;;;;;;;-142.57;100.00;68379.81;5046438;28;20033;-76
2022/09/17 03:31:37;;;;;;;10.30;3.45;;;;;;;-142.57;100.00;68379.81;5039716;28;20467;-76
2022/09/17 03:34:02;;;;;;;19.13;4.03;;;;;;;-142.57;100.00;68379.81;5055344;28;20029;-77
2022/09/17 03:36:27;;;;;;;9.98;3.78;;;;;;;-142.57;100.00;68379.81;5041221;28;20128;-76
2022/09/17 03:38:56;;;;;;;8.50;4.18;;;;;;;-142.57;100.00;68379.81;5042813;28;20107;-78
2022/09/17 03:41:22;;;;;;;13.02;4.75;;;;;;;-142.57;100.00;68379.81;5030966;28;20081;-81
2022/09/17 03:43:48;;;;;;;10.05;4.18;;;;;;;-142.57;100.00;68379.81;5048497;28;20025;-77
2022/09/17 03:46:13;;;;;;;11.82;4.00;;;;;;;-142.57;100.00;68379.81;5044467;28;20024;-79
2022/09/17 03:48:38;;;;;;;11.98;4.18;;;;;;;-142.57;100.00;68379.81;5052666;28;20531;-78
2022/09/17 03:51:05;;;;;;;10.93;4.38;;;;;;;-142.57;100.00;68379.81;5046197;28;20079;-77
2022/09/17 03:53:31;;;;;;;13.05;4.00;;;;;;;-142.57;100.00;68379.81;5046507;28;20751;-78
2022/09/17 03:55:58;;;;;;;11.27;4.95;;;;;;;-142.57;100.00;68379.81;5051071;28;20028;-76
2022/09/17 03:58:23;;;;;;;16.75;5.50;;;;;;;-142.57;100.00;68379.81;5050680;28;20021;-76
2022/09/17 04:00:52;;;;;;;12.55;4.53;;;;;;;-142.57;100.00;68379.81;5038946;28;20445;-76
2022/09/17 04:03:17;;;;;;;10.73;4.47;;;;;;;-142.57;100.00;68379.81;5047247;28;20025;-77
2022/09/17 04:05:43;;;;;;;14.00;4.90;;;;;;;-142.57;100.00;68379.81;5050422;28;20024;-77
2022/09/17 04:08:08;;;;;;;16.08;4.68;;;;;;;-142.57;100.00;68379.81;5042858;28;20025;-76
2022/09/17 04:10:33;;;;;;;17.45;5.07;;;;;;;-142.57;100.00;68379.81;5049791;28;20064;-77
2022/09/17 04:12:59;;;;;;;11.93;4.38;;;;;;;-142.57;100.00;68379.81;5041680;28;20036;-76
2022/09/17 04:15:24;;;;;;;9.02;3.80;;;;;;;-142.57;100.00;68379.81;5052180;28;20045;-76
2022/09/17 04:17:49;;;;;;;7.40;4.30;;;;;;;-142.57;100.00;68379.81;5049738;28;20102;-76
2022/09/17 04:20:15;;;;;;;20.13;4.63;;;;;;;-142.57;100.00;68379.81;5049677;28;20390;-76
2022/09/17 04:22:40;;;;;;;11.20;4.20;;;;;;;-142.57;100.00;68379.81;5041092;28;20112;-77
2022/09/17 04:25:06;;;;;;;14.98;4.20;;;;;;;-142.57;100.00;68379.81;5033410;28;20025;-76
2022/09/17 04:27:32;;;;;;;13.07;4.60;;;;;;;-142.57;100.00;68379.81;5045670;28;20020;-78
2022/09/17 04:29:57;;;;;;;13.05;4.50;;;;;;;-142.57;100.00;68379.81;5051204;28;20017;-77
2022/09/17 04:32:22;;;;;;;12.77;4.50;;;;;;;-142.57;100.00;68379.81;5056405;28;20121;-77
2022/09/17 04:34:48;;;;;;;13.80;4.78;;;;;;;-142.57;100.00;68379.81;5081598;28;20033;-77
2022/09/17 04:37:14;;;;;;;9.75;3.85;;;;;;;-142.57;100.00;68379.81;5046743;28;20545;-77
2022/09/17 04:39:39;;;;;;;9.43;3.90;;;;;;;-142.57;100.00;68379.81;5035871;28;20390;-77
2022/09/17 04:42:05;;;;;;;13.38;4.35;;;;;;;-142.57;100.00;68379.81;5053930;28;20037;-78
2022/09/17 04:44:30;;;;;;;11.93;3.20;;;;;;;-142.57;100.00;68379.81;5052491;28;20397;-78
2022/09/17 04:46:56;;;;;;;12.63;3.65;;;;;;;-142.57;100.00;68379.81;5039974;28;20029;-78
2022/09/17 04:49:21;;;;;;;12.30;3.77;;;;;;;-142.57;100.00;68379.81;5050226;28;20038;-79
2022/09/17 04:51:46;;;;;;;12.45;4.22;;;;;;;-142.57;100.00;68379.81;5039143;28;20053;-79
2022/09/17 04:54:12;;;;;;;8.02;3.08;;;;;;;-142.57;100.00;68379.81;5046419;28;20112;-77
2022/09/17 04:56:37;;;;;;;11.32;4.43;;;;;;;-142.57;100.00;68379.81;5046102;28;20483;-77
2022/09/17 04:59:02;;;;;;;10.02;3.60;;;;;;;-142.57;100.00;68379.81;5042734;28;20163;-77
2022/09/17 05:01:28;;;;;;;17.13;4.03;;;;;;;-142.57;100.00;68379.81;5050514;28;20100;-76
2022/09/17 05:03:53;;;;;;;12.65;3.63;;;;;;;-142.57;100.00;68379.81;5046493;28;20021;-78
2022/09/17 05:06:18;;;;;;;10.73;3.38;;;;;;;-142.57;100.00;68379.81;5049371;28;20376;-77
2022/09/17 05:08:44;;;;;;;10.70;3.42;;;;;;;-142.57;100.00;68379.81;5029743;28;20033;-76
2022/09/17 05:11:09;;;;;;;11.05;4.28;;;;;;;-142.57;100.00;68379.81;5045629;28;20052;-75
2022/09/17 05:13:35;;;;;;;8.82;3.72;;;;;;;-142.57;100.00;68379.81;5036689;28;20034;-76
2022/09/17 05:16:00;;;;;;;12.25;4.22;;;;;;;-142.57;100.00;68379.81;5027578;28;20021;-78
2022/09/17 05:18:25;;;;;;;6.55;2.97;;;;;;;-142.57;100.00;68379.81;5041051;28;20547;-80
2022/09/17 05:20:51;;;;;;;14.10;3.60;;;;;;;-142.57;100.00;68379.81;5046799;28;20075;-79
2022/09/17 05:23:16;;;;;;;11.93;3.78;;;;;;;-142.57;100.00;68379.81;5035418;28;20119;-80
2022/09/17 05:25:42;;;;;;;16.27;3.60;;;;;;;-142.57;100.00;68379.81;5022702;28;20027;-75
2022/09/17 05:28:07;;;;;;;9.50;3.30;;;;;;;-142.57;100.00;68379.81;5038125;28;20454;-78
2022/09/17 05:30:33;;;;;;;12.25;3.60;;;;;;;-142.57;100.00;68379.81;5037072;28;20056;-77
2022/09/17 05:33:03;;;;;;;9.20;3.20;;;;;;;-142.57;100.00;68379.81;5009653;28;20031;-77
2022/09/17 05:35:29;;;;;;;7.95;3.42;;;;;;;-142.57;100.00;68379.81;4993648;28;20198;-77
2022/09/17 05:37:59;;;;;;;10.32;3.60;;;;;;;-142.57;100.00;68379.81;5002675;28;20033;-78
2022/09/17 05:40:25;;;;;;;10.50;3.80;;;;;;;-142.57;100.00;68379.81;5011605;28;20075;-77
2022/09/17 05:42:50;;;;;;;12.55;3.35;;;;;;;-142.57;100.00;68379.81;5011667;28;20878;-77
2022/09/17 05:45:16;;;;;;;14.15;3.85;;;;;;;-142.57;100.00;68379.81;5016599;28;20865;-77
2022/09/17 05:47:41;;;;;;;9.52;3.17;;;;;;;-142.57;100.00;68379.81;5020666;28;20519;-77
2022/09/17 05:50:07;;;;;;;14.05;3.38;;;;;;;-142.57;100.00;68379.81;5062020;28;20026;-77
2022/09/17 05:52:32;;;;;;;12.63;3.72;;;;;;;-142.57;100.00;68379.81;5044072;28;20033;-75
2022/09/17 05:54:57;;;;;;;13.35;4.75;;;;;;;-142.57;100.00;68379.81;5038260;28;20047;-77
2022/09/17 05:57:23;;;;;;;12.27;3.38;;;;;;;-142.57;100.00;68379.81;5040761;28;20025;-77
2022/09/17 05:59:48;;;;;;;14.15;4.78;;;;;;;-142.57;100.00;68379.81;5025174;28;20033;-77
2022/09/17 06:02:14;;;;;;;12.70;4.03;;;;;;;-142.57;100.00;68379.81;5023455;28;20021;-77
2022/09/17 06:04:39;;;;;;;11.82;3.50;;;;;;;-142.57;100.00;68379.81;5014191;28;20029;-77
2022/09/17 06:07:07;;;;;;;14.55;4.53;;;;;;;-142.57;100.00;68379.81;5046917;28;20873;-77
2022/09/17 06:09:36;;;;;;;11.60;3.90;;;;;;;-142.57;100.00;68379.81;5013016;28;20039;-76
2022/09/17 06:12:03;;;;;;;13.00;3.63;;;;;;;-142.57;100.00;68379.81;5013237;28;20580;-77
2022/09/17 06:14:29;;;;;;;14.63;4.90;;;;;;;-142.57;100.00;68379.81;4993726;28;20087;-75
2022/09/17 06:16:55;;;;;;;11.80;3.75;;;;;;;-142.57;100.00;68379.81;5010091;28;20036;-78
2022/09/17 06:19:20;;;;;;;8.98;3.30;;;;;;;-142.57;100.00;68379.81;5019912;28;20785;-77
2022/09/17 06:21:46;;;;;;;16.67;4.85;;;;;;;-142.57;100.00;68379.81;5012715;28;20071;-78
2022/09/17 06:24:11;;;;;;;17.00;4.72;;;;;;;-142.57;100.00;68379.81;5014890;28;20021;-77
2022/09/17 06:26:37;;;;;;;15.90;3.72;;;;;;;-142.57;100.00;68379.81;5012143;28;20128;-77
2022/09/17 06:29:02;;;;;;;7.45;2.90;;;;;;;-142.57;100.00;68379.81;5014266;28;20882;-77
2022/09/17 06:31:27;;;;;;;13.57;4.18;;;;;;;-142.57;100.00;68379.81;5014804;28;20031;-77
2022/09/17 06:33:56;;;;;;;14.02;3.88;;;;;;;-142.57;100.00;68379.81;4995715;28;20839;-77
2022/09/17 06:36:21;;;;;;;9.05;3.70;;;;;;;-142.57;100.00;68379.81;4992835;28;20103;-77
2022/09/17 06:38:47;;;;;;;10.25;3.85;;;;;;;-142.57;100.00;68379.81;5009327;28;20044;-76
2022/09/17 06:41:13;;;;;;;14.30;4.00;;;;;;;-142.57;100.00;68379.81;5021281;28;20083;-76
2022/09/17 06:43:39;;;;;;;11.80;4.13;;;;;;;-142.57;100.00;68379.81;5030577;28;20028;-77
2022/09/17 06:46:05;;;;;;;17.90;4.65;;;;;;;-142.57;100.00;68379.81;5024811;28;20036;-78
2022/09/17 06:48:33;;;;;;;14.32;4.07;;;;;;;-142.57;100.00;68379.81;5030901;28;20746;-77
2022/09/17 06:51:04;;;;;;;12.15;4.28;;;;;;;-142.57;100.00;68379.81;5030561;28;20082;-78
2022/09/17 06:53:30;;;;;;;12.52;4.35;;;;;;;-142.57;100.00;68379.81;5030816;28;20086;-76
2022/09/17 06:55:57;;;;;;;14.30;4.93;;;;;;;-142.57;100.00;68379.81;5021512;28;20040;-76
2022/09/17 06:58:22;;;;;;;12.98;3.60;;;;;;;-142.57;100.00;68379.81;5002285;28;20038;-76
2022/09/17 07:00:47;;;;;;;12.18;4.20;;;;;;;-142.57;100.00;68379.81;5025587;28;20025;-77
2022/09/17 07:03:13;;;;;;;11.55;3.58;;;;;;;-142.57;100.00;68379.81;5023728;28;20033;-77
2022/09/17 07:05:38;;;;;;;9.88;3.50;;;;;;;-142.57;100.00;68379.81;5020977;28;20029;-77
2022/09/17 07:08:04;;;;;;;19.02;4.22;;;;;;;-142.57;100.00;68379.81;5022591;28;20127;-76
2022/09/17 07:10:30;;;;;;;8.38;3.35;;;;;;;-142.57;100.00;68379.81;5016124;28;20090;-76
2022/09/17 07:12:56;;;;;;;11.90;3.65;;;;;;;-142.57;100.00;68379.81;5020437;28;20036;-76
2022/09/17 07:15:21;;;;;;;8.68;3.13;;;;;;;-142.57;100.00;68379.81;5000073;28;20057;-76
2022/09/17 07:17:47;;;;;;;12.38;3.83;;;;;;;-142.57;100.00;68379.81;5002322;28;20072;-78
2022/09/17 07:20:12;;;;;;;16.67;3.50;;;;;;;-142.57;100.00;68379.81;5023419;28;20028;-79
2022/09/17 07:22:38;;;;;;;12.95;3.65;;;;;;;-142.57;100.00;68379.81;5016388;28;20786;-79
2022/09/17 07:25:04;;;;;;;18.17;4.30;;;;;;;-142.57;100.00;68379.81;5021219;28;20024;-78
2022/09/17 07:27:30;;;;;;;12.77;3.85;;;;;;;-142.57;100.00;68379.81;5008610;28;20078;-79
2022/09/17 07:29:56;;;;;;;11.48;3.75;;;;;;;-142.57;100.00;68379.81;5033180;28;20120;-75
2022/09/17 07:32:22;;;;;;;15.00;4.35;;;;;;;-142.57;100.00;68379.81;5010889;28;20036;-78
2022/09/17 07:34:50;;;;;;;11.07;3.10;;;;;;;-142.57;100.00;68379.81;5024865;28;20040;-77
2022/09/17 07:37:16;;;;;;;7.97;3.40;;;;;;;-142.57;100.00;68379.81;5001362;28;20032;-77
2022/09/17 07:39:42;;;;;;;7.28;3.33;;;;;;;-142.57;100.00;68379.81;5027240;28;20032;-76
2022/09/17 07:42:08;;;;;;;13.55;4.60;;;;;;;-142.57;100.00;68379.81;5015152;28;20082;-76
2022/09/17 07:44:33;;;;;;;13.88;4.28;;;;;;;-142.57;100.00;68379.81;5026927;28;20098;-76
2022/09/17 07:46:59;;;;;;;14.40;3.90;;;;;;;-142.57;100.00;68379.81;5024357;28;20441;-76
2022/09/17 07:49:25;;;;;;;10.15;3.65;;;;;;;-142.57;100.00;68379.81;5030391;28;20128;-76
2022/09/17 07:51:50;;;;;;;14.85;4.53;;;;;;;-142.57;100.00;68379.81;5024935;28;20052;-76
2022/09/17 07:54:16;;;;;;;12.23;3.72;;;;;;;-142.57;100.00;68379.81;5022101;28;20803;-75
2022/09/17 07:56:41;;;;;;;18.30;3.88;;;;;;;-142.57;100.00;68379.81;5018445;28;20080;-75
2022/09/17 07:59:08;;;;;;;12.32;3.97;;;;;;;-142.57;100.00;68379.81;5023542;28;20033;-76
2022/09/17 08:01:35;;;;;;;8.18;3.45;;;;;;;-142.57;100.00;68379.81;5018266;28;20050;-77
2022/09/17 08:04:01;;;;;;;6.72;2.90;;;;;;;-142.57;100.00;68379.81;5021436;28;20558;-75
2022/09/17 08:06:27;;;;;;;9.82;3.33;;;;;;;-142.57;100.00;68379.81;5018299;28;20080;-75
2022/09/17 08:08:53;;;;;;;7.18;2.22;;;;;;;-142.57;100.00;68379.81;5017772;28;20859;-79
2022/09/17 08:11:20;;;;;;;5.82;2.63;;;;;;;-142.57;100.00;68379.81;5016411;28;20888;-76
2022/09/17 08:13:49;;;;;;;10.80;3.03;;;;;;;-142.57;100.00;68379.81;5017360;28;20029;-76
2022/09/17 08:16:15;;;;;;;14.70;3.60;;;;;;;-142.57;100.00;68379.81;5008482;28;20028;-77
2022/09/17 08:18:42;;;;;;;14.05;3.83;;;;;;;-142.57;100.00;68379.81;5012266;28;20112;-77
2022/09/17 08:21:12;;;;;;;7.68;2.42;;;;;;;-142.57;100.00;68379.81;5016942;28;20078;-74
2022/09/17 08:23:40;;;;;;;9.90;2.65;;;;;;;-142.57;100.00;68379.81;5029487;28;20044;-77
2022/09/17 08:26:13;;;;;;;7.90;3.15;;;;;;;-142.57;100.00;68379.81;5022452;28;20034;-75
2022/09/17 08:28:38;;;;;;;7.65;2.45;;;;;;;-142.57;100.00;68379.81;5027415;28;20298;-76
2022/09/17 08:31:07;;;;;;;7.70;2.47;;;;;;;-142.57;100.00;68379.81;5035760;28;20498;-75
2022/09/17 08:33:38;;;;;;;8.05;2.80;;;;;;;-142.57;100.00;68379.81;5029458;28;20032;-76
2022/09/17 08:36:04;;;;;;;15.65;3.10;;;;;;;-142.57;100.00;68379.81;5030090;28;20040;-75
2022/09/17 08:38:37;;;;;;;7.22;3.03;;;;;;;-142.57;100.00;68379.81;5047316;28;20031;-76
2022/09/17 08:41:08;;;;;;;8.65;2.70;;;;;;;-142.57;100.00;68379.81;5034154;28;20029;-75
2022/09/17 08:43:46;;;;;;;10.00;2.55;;;;;;;-142.57;100.00;68379.81;5037548;28;20037;-76
2022/09/17 08:46:12;;;;;;;9.38;2.47;;;;;;;-142.57;100.00;68379.81;5032624;28;20044;-75
2022/09/17 08:49:06;;;;;;;6.93;2.70;;;;;;;-142.57;100.00;68379.81;5028823;28;20029;-74
2022/09/17 08:51:44;;;;;;;9.73;3.20;;;;;;;-142.57;100.00;68379.81;5029554;28;20048;-78
2022/09/17 08:54:39;;;;;;;6.55;2.22;;;;;;;-142.57;100.00;68379.81;5045286;28;20629;-76
2022/09/17 08:57:14;;;;;;;5.57;2.47;;;;;;;-142.57;100.00;68379.81;5043543;28;20121;-77
2022/09/17 09:00:08;;;;;;;9.65;2.95;;;;;;;-142.57;100.00;68379.81;5043715;28;20735;-78
2022/09/17 09:02:44;;;;;;;16.70;3.55;;;;;;;-142.57;100.00;68379.81;5017314;28;20545;-78
2022/09/17 09:05:14;;;;;;;12.02;2.58;;;;;;;-142.57;100.00;68379.81;5024792;28;20041;-77
2022/09/17 09:07:45;;;;;;;8.77;3.17;;;;;;;-142.57;100.00;68379.81;5040143;28;20044;-80
2022/09/17 09:10:22;;;;;;;13.68;2.83;;;;;;;-142.57;100.00;68379.81;5035257;28;20036;-79
2022/09/17 09:12:48;;;;;;;11.77;2.65;;;;;;;-142.57;100.00;68379.81;5015626;28;20094;-80
2022/09/17 09:15:38;;;;;;;8.95;2.83;;;;;;;-142.57;100.00;68379.81;5035501;28;20021;-73
2022/09/17 09:18:21;;;;;;;6.07;2.95;;;;;;;-142.57;100.00;68379.81;5037812;28;20037;-79
2022/09/17 09:20:54;;;;;;;9.75;3.22;;;;;;;-142.57;100.00;68379.81;5052161;28;20035;-77
2022/09/17 09:23:28;;;;;;;6.43;2.75;;;;;;;-142.57;100.00;68379.81;5046612;28;20961;-76
2022/09/17 09:26:08;;;;;;;9.13;2.80;;;;;;;-142.57;100.00;68379.81;5033491;28;20060;-80
2022/09/17 09:28:39;;;;;;;14.82;3.80;;;;;;;-142.57;100.00;68379.81;5093749;28;20040;-76
2022/09/17 09:31:12;;;;;;;5.65;2.30;;;;;;;-142.57;100.00;68379.81;5058986;28;20027;-78
2022/09/17 09:33:40;;;;;;;9.10;2.80;;;;;;;-142.57;100.00;68379.81;5050578;28;20040;-79
2022/09/17 09:36:09;;;;;;;8.68;2.58;;;;;;;-142.57;100.00;68379.81;5059892;28;20037;-76
2022/09/17 09:38:39;;;;;;;7.63;2.22;;;;;;;-142.57;100.00;68379.81;5075078;28;20087;-75
2022/09/17 09:41:15;;;;;;;7.88;2.33;;;;;;;-142.57;100.00;68379.81;5049672;28;20033;-76
2022/09/17 09:44:10;;;;;;;6.18;1.92;;;;;;;-142.57;100.00;68379.81;5054008;28;20078;-74
2022/09/17 09:46:48;;;;;;;10.32;2.13;;;;;;;-142.57;100.00;68379.81;5051416;28;20123;-74
2022/09/17 09:49:25;;;;;;;5.03;2.17;;;;;;;-142.57;100.00;68379.81;5053232;28;20033;-76
2022/09/17 09:52:12;;;;;;;9.57;1.95;;;;;;;-142.57;100.00;68379.81;5046557;28;20032;-76
2022/09/17 09:54:56;;;;;;;3.90;1.83;;;;;;;-142.57;100.00;68379.81;5054499;28;20033;-73
2022/09/17 09:57:34;;;;;;;2.47;1.25;;;;;;;-142.57;100.00;68379.81;5054213;28;20048;-74
2022/09/17 10:00:31;;;;;;;4.05;1.42;;;;;;;-142.57;100.00;68379.81;5053001;28;20071;-73
2022/09/17 10:03:02;;;;;;;3.72;1.55;;;;;;;-142.57;100.00;68379.81;5052282;28;20490;-75
2022/09/17 10:05:28;;;;;;;4.55;1.52;;;;;;;-142.57;100.00;68379.81;5024473;28;20079;-74
2022/09/17 10:07:53;;;;;;;4.10;1.70;;;;;;;-142.57;100.00;68379.81;5053858;28;20422;-73
2022/09/17 10:10:19;;;;;;;6.07;2.03;;;;;;;-142.57;100.00;68379.81;5053595;28;20036;-72
2022/09/17 10:12:44;;;;;;;5.57;1.90;;;;;;;-142.57;100.00;68379.81;5053221;28;20029;-73
2022/09/17 10:15:24;;;;;;;4.50;1.55;;;;;;;-142.57;100.00;68379.81;5053464;28;20056;-73
2022/09/17 10:18:11;;;;;;;6.10;1.92;;;;;;;-142.57;100.00;68379.81;5052224;28;20079;-73
2022/09/17 10:20:48;;;;;;;5.90;1.80;;;;;;;-142.57;100.00;68379.81;5053242;28;20052;-72
2022/09/17 10:23:13;;;;;;;4.38;1.42;;;;;;;-142.57;100.00;68379.81;5058543;28;20064;-72
2022/09/17 10:25:42;;;;;;;3.70;1.35;;;;;;;-142.57;100.00;68379.81;5051402;28;20025;-73
2022/09/17 10:28:28;;;;;;;3.03;1.30;;;;;;;-142.57;100.00;68379.81;5051994;28;20025;-72
2022/09/17 10:30:57;;;;;;;3.20;1.27;;;;;;;-142.57;100.00;68379.81;5049670;28;20036;-73
2022/09/17 10:33:26;;;;;;;3.78;1.50;;;;;;;-142.57;100.00;68379.81;5055458;28;20104;-74
2022/09/17 10:36:01;;;;;;;4.47;1.42;;;;;;;-142.57;100.00;68379.81;5055915;28;20120;-74
2022/09/17 10:38:32;;;;;;;4.72;1.40;;;;;;;-142.57;100.00;68379.81;5048570;28;20037;-73
2022/09/17 10:41:20;;;;;;;3.17;1.10;;;;;;;-142.57;100.00;68379.81;5052485;28;20560;-72
2022/09/17 10:43:46;;;;;;;5.60;1.48;;;;;;;-142.57;100.00;68379.81;5052105;28;20144;-72
2022/09/17 10:46:15;;;;;;;6.05;1.50;;;;;;;-142.57;100.00;68379.81;5052450;28;20120;-73
2022/09/17 10:48:44;;;;;;;4.60;1.63;;;;;;;-142.57;100.00;68379.81;5051882;28;20029;-73
2022/09/17 10:51:10;;;;;;;6.70;1.48;;;;;;;-142.57;100.00;68379.81;5048534;28;20517;-73
2022/09/17 10:54:02;;;;;;;6.55;1.70;;;;;;;-142.57;100.00;68379.81;5055294;28;20036;-73
2022/09/17 10:56:35;;;;;;;10.05;1.98;;;;;;;-142.57;100.00;68379.81;5028763;28;20400;-73
2022/09/17 10:59:19;;;;;;;6.50;2.07;;;;;;;-142.57;100.00;68379.81;5038193;28;20032;-69
2022/09/17 11:02:03;;;;;;;4.55;2.22;;;;;;;-142.57;100.00;68379.81;5040961;28;20307;-71
2022/09/17 11:04:49;;;;;;;5.25;1.65;;;;;;;-142.57;100.00;68379.81;5037164;28;20025;-77
2022/09/17 11:07:24;;;;;;;3.95;1.42;;;;;;;-142.57;100.00;68379.81;5007248;28;20029;-74
2022/09/17 11:10:01;;;;;;;10.07;2.35;;;;;;;-142.57;100.00;68379.81;5027321;28;20100;-71
2022/09/17 11:13:04;;;;;;;5.03;1.70;;;;;;;-142.57;100.00;68379.81;5053351;28;20480;-72
2022/09/17 11:15:43;;;;;;;3.95;1.40;;;;;;;-142.57;100.00;68379.81;5049783;28;20382;-75
2022/09/17 11:18:23;;;;;;;2.55;1.08;;;;;;;-142.57;100.00;68379.81;5050977;28;20467;-74